createdAt,value
2018-10-09T00:01:59.617Z,7.27
2018-10-09T00:04:27.745Z,6.97
2018-10-09T00:06:55.841Z,5.97
2018-10-09T00:09:23.961Z,5.63
2018-10-09T00:11:52.057Z,4.00
2018-10-09T00:14:20.151Z,6.37
2018-10-09T00:16:48.245Z,4.67
2018-10-09T00:19:16.333Z,5.73
2018-10-09T00:21:44.552Z,6.90
2018-10-09T00:24:12.649Z,4.00
2018-10-09T00:26:40.801Z,5.53
2018-10-09T00:29:08.902Z,4.03
2018-10-09T00:31:37.194Z,5.20
2018-10-09T00:34:05.334Z,3.97
2018-10-09T00:36:33.725Z,4.50
2018-10-09T00:39:02.213Z,3.57
2018-10-09T00:41:30.353Z,6.70
2018-10-09T00:43:58.574Z,7.13
2018-10-09T00:46:26.729Z,4.00
2018-10-09T00:48:54.886Z,7.03
2018-10-09T00:51:23.046Z,3.83
2018-10-09T00:53:51.222Z,6.33
2018-10-09T00:56:19.746Z,3.73
2018-10-09T00:58:47.821Z,3.43
2018-10-09T01:01:15.978Z,3.60
2018-10-09T01:06:19.421Z,4.40
2018-10-09T01:08:47.657Z,4.00
2018-10-09T01:11:15.937Z,3.20
2018-10-09T01:13:44.020Z,3.13
2018-10-09T01:16:12.209Z,4.00
2018-10-09T01:18:40.389Z,4.17
2018-10-09T01:21:08.621Z,5.50
2018-10-09T01:23:36.818Z,3.83
2018-10-09T01:26:05.038Z,4.57
2018-10-09T01:28:33.148Z,3.60
2018-10-09T01:31:01.301Z,2.63
2018-10-09T01:33:29.463Z,4.30
2018-10-09T01:35:57.580Z,2.40
2018-10-09T01:41:00.993Z,2.70
2018-10-09T01:43:29.061Z,4.20
2018-10-09T01:45:57.317Z,3.53
2018-10-09T01:48:25.394Z,3.70
2018-10-09T01:50:53.513Z,1.93
2018-10-09T01:53:21.622Z,4.33
2018-10-09T01:55:49.713Z,4.97
2018-10-09T01:58:17.806Z,3.17
2018-10-09T02:00:45.986Z,2.73
2018-10-09T02:03:14.053Z,5.50
2018-10-09T02:05:42.205Z,3.00
2018-10-09T02:08:10.369Z,3.60
2018-10-09T02:10:38.500Z,3.03
2018-10-09T02:13:06.570Z,3.80
2018-10-09T02:15:34.694Z,4.73
2018-10-09T02:18:02.801Z,6.70
2018-10-09T02:20:30.909Z,2.93
2018-10-09T02:22:59.001Z,4.77
2018-10-09T02:25:27.228Z,4.33
2018-10-09T02:27:55.302Z,3.70
2018-10-09T02:30:23.444Z,3.03
2018-10-09T02:32:51.531Z,2.97
2018-10-09T02:35:19.639Z,3.70
2018-10-09T02:37:47.769Z,2.68
2018-10-09T02:40:15.871Z,2.00
2018-10-09T02:42:44.009Z,1.97
2018-10-09T02:45:12.231Z,2.67
2018-10-09T02:47:40.309Z,2.80
2018-10-09T02:50:08.402Z,3.33
2018-10-09T02:52:36.470Z,2.60
2018-10-09T02:55:04.551Z,2.73
2018-10-09T02:57:32.651Z,2.10
2018-10-09T03:00:00.777Z,2.90
2018-10-09T03:02:28.841Z,1.30
2018-10-09T03:04:56.913Z,3.77
2018-10-09T03:07:25.025Z,2.97
2018-10-09T03:09:53.109Z,4.53
2018-10-09T03:12:21.541Z,3.23
2018-10-09T03:14:49.675Z,7.23
2018-10-09T03:17:17.790Z,5.20
2018-10-09T03:19:46.014Z,4.60
2018-10-09T03:22:14.107Z,5.23
2018-10-09T03:24:42.233Z,3.80
2018-10-09T03:27:10.318Z,2.13
2018-10-09T03:29:38.446Z,1.77
2018-10-09T03:32:06.988Z,4.33
2018-10-09T03:34:35.366Z,1.70
2018-10-09T03:37:03.622Z,3.27
2018-10-09T03:39:31.801Z,2.20
2018-10-09T03:42:00.063Z,2.63
2018-10-09T03:44:28.179Z,1.87
2018-10-09T03:46:56.393Z,2.97
2018-10-09T03:49:24.602Z,2.73
2018-10-09T03:51:53.095Z,1.87
2018-10-09T03:54:21.249Z,3.37
2018-10-09T03:56:49.648Z,1.70
2018-10-09T04:01:54.950Z,2.20
2018-10-09T04:04:23.354Z,3.10
2018-10-09T04:06:51.679Z,2.07
2018-10-09T04:09:19.854Z,3.57
2018-10-09T04:11:48.217Z,2.43
2018-10-09T04:14:16.515Z,2.33
2018-10-09T04:16:45.028Z,2.30
2018-10-09T04:19:13.129Z,3.07
2018-10-09T04:21:41.476Z,1.60
2018-10-09T04:24:09.672Z,1.70
2018-10-09T04:26:37.893Z,3.50
2018-10-09T04:29:06.149Z,3.07
2018-10-09T04:31:34.367Z,2.27
2018-10-09T04:34:02.709Z,1.40
2018-10-09T04:36:31.247Z,2.70
2018-10-09T04:38:59.713Z,2.13
2018-10-09T04:41:27.841Z,4.10
2018-10-09T04:43:56.382Z,1.70
2018-10-09T04:46:24.845Z,4.30
2018-10-09T04:48:52.993Z,1.40
2018-10-09T04:51:21.764Z,3.97
2018-10-09T04:53:50.241Z,2.63
2018-10-09T04:56:19.779Z,2.47
2018-10-09T04:58:48.099Z,3.67
2018-10-09T05:01:16.436Z,2.73
2018-10-09T05:03:44.967Z,2.90
2018-10-09T05:06:13.282Z,2.13
2018-10-09T05:08:41.372Z,2.63
2018-10-09T05:11:09.605Z,1.57
2018-10-09T05:13:37.752Z,2.30
2018-10-09T05:16:06.112Z,1.50
2018-10-09T05:18:34.231Z,3.87
2018-10-09T05:21:02.405Z,2.10
2018-10-09T05:23:30.566Z,3.07
2018-10-09T05:25:58.905Z,4.70
2018-10-09T05:28:27.192Z,2.80
2018-10-09T05:30:55.387Z,4.30
2018-10-09T05:33:23.592Z,2.13
2018-10-09T05:35:51.891Z,7.93
2018-10-09T05:38:20.230Z,3.40
2018-10-09T05:40:48.410Z,2.37
2018-10-09T05:43:16.885Z,3.80
2018-10-09T05:45:45.319Z,2.67
2018-10-09T05:48:13.815Z,3.77
2018-10-09T05:50:42.013Z,1.80
2018-10-09T05:53:10.215Z,3.47
2018-10-09T05:55:38.506Z,2.80
2018-10-09T05:58:06.962Z,2.13
2018-10-09T06:00:35.203Z,2.00
2018-10-09T06:03:03.429Z,2.93
2018-10-09T06:08:08.821Z,5.13
2018-10-09T06:10:37.029Z,2.37
2018-10-09T06:13:05.254Z,3.37
2018-10-09T06:15:33.575Z,3.27
2018-10-09T06:18:01.731Z,3.50
2018-10-09T06:20:29.787Z,2.10
2018-10-09T06:22:58.013Z,2.77
2018-10-09T06:25:26.102Z,2.97
2018-10-09T06:27:54.289Z,3.20
2018-10-09T06:30:22.332Z,3.60
2018-10-09T06:32:50.457Z,3.07
2018-10-09T06:35:18.593Z,2.30
2018-10-09T06:37:46.722Z,2.10
2018-10-09T06:40:14.786Z,3.27
2018-10-09T06:42:42.952Z,2.13
2018-10-09T06:45:11.034Z,3.00
2018-10-09T06:47:39.137Z,2.47
2018-10-09T06:50:07.269Z,3.57
2018-10-09T06:52:35.553Z,7.70
2018-10-09T06:55:03.606Z,6.10
2018-10-09T06:57:31.701Z,3.10
2018-10-09T06:59:59.786Z,4.00
2018-10-09T07:02:27.865Z,7.37
2018-10-09T07:04:55.934Z,8.07
2018-10-09T07:07:24.100Z,5.77
2018-10-09T07:09:52.374Z,10.00
2018-10-09T07:12:20.439Z,5.37
2018-10-09T07:14:48.558Z,4.07
2018-10-09T07:17:16.715Z,4.77
2018-10-09T07:19:44.815Z,5.33
2018-10-09T07:22:12.891Z,4.37
2018-10-09T07:24:41.024Z,5.83
2018-10-09T07:27:09.166Z,4.33
2018-10-09T07:29:37.294Z,2.93
2018-10-09T07:32:05.390Z,3.40
2018-10-09T07:34:33.444Z,6.57
2018-10-09T07:37:01.658Z,2.53
2018-10-09T07:39:29.689Z,1.53
2018-10-09T07:41:57.799Z,3.90
2018-10-09T07:44:25.990Z,3.67
2018-10-09T07:46:53.974Z,2.63
2018-10-09T07:49:22.126Z,3.37
2018-10-09T07:51:50.189Z,3.00
2018-10-09T07:54:18.249Z,2.27
2018-10-09T07:56:46.413Z,4.30
2018-10-09T07:59:14.475Z,4.27
2018-10-09T08:01:42.530Z,4.17
2018-10-09T08:04:10.716Z,2.30
2018-10-09T08:06:38.814Z,3.70
2018-10-09T08:09:09.095Z,2.20
2018-10-09T08:11:37.138Z,3.43
2018-10-09T08:14:05.510Z,3.23
2018-10-09T08:16:33.607Z,2.17
2018-10-09T08:19:02.161Z,1.60
2018-10-09T08:21:30.207Z,3.37
2018-10-09T08:23:58.255Z,2.53
2018-10-09T08:26:26.367Z,3.10
2018-10-09T08:28:54.532Z,2.43
2018-10-09T08:31:22.634Z,3.87
2018-10-09T08:33:50.807Z,2.90
2018-10-09T08:36:18.917Z,2.23
2018-10-09T08:38:47.100Z,4.63
2018-10-09T08:41:15.311Z,2.37
2018-10-09T08:43:43.350Z,5.20
2018-10-09T08:46:11.501Z,2.00
2018-10-09T08:48:39.943Z,2.03
2018-10-09T08:51:08.068Z,3.47
2018-10-09T08:53:36.158Z,1.57
2018-10-09T08:56:04.404Z,2.03
2018-10-09T08:58:32.504Z,3.43
2018-10-09T09:01:00.626Z,1.43
2018-10-09T09:03:28.805Z,1.50
2018-10-09T09:05:56.802Z,2.47
2018-10-09T09:08:24.846Z,2.23
2018-10-09T09:10:52.906Z,1.93
2018-10-09T09:13:20.974Z,1.23
2018-10-09T09:15:49.042Z,2.43
2018-10-09T09:18:17.111Z,2.97
2018-10-09T09:20:45.324Z,1.60
2018-10-09T09:23:13.339Z,3.03
2018-10-09T09:25:41.462Z,1.27
2018-10-09T09:28:09.565Z,1.47
2018-10-09T09:30:37.621Z,1.97
2018-10-09T09:33:05.747Z,4.90
2018-10-09T09:35:33.762Z,1.00
2018-10-09T09:38:02.015Z,2.50
2018-10-09T09:40:33.082Z,2.83
2018-10-09T09:43:01.206Z,1.33
2018-10-09T09:45:29.299Z,4.93
2018-10-09T09:47:57.406Z,1.83
2018-10-09T09:50:25.544Z,2.30
2018-10-09T09:52:53.583Z,1.47
2018-10-09T09:55:21.703Z,1.77
2018-10-09T09:57:49.887Z,3.97
2018-10-09T10:00:23.362Z,29.03
2018-10-09T10:02:51.563Z,119.47
2018-10-09T10:05:19.618Z,265.17
2018-10-09T10:07:47.722Z,264.00
2018-10-09T10:10:15.819Z,206.97
2018-10-09T10:12:43.940Z,186.07
2018-10-09T10:15:12.056Z,153.13
2018-10-09T10:17:40.214Z,149.00
2018-10-09T10:20:08.423Z,134.80
2018-10-09T10:22:36.622Z,130.83
2018-10-09T10:25:04.900Z,120.00
2018-10-09T10:27:33.196Z,113.23
2018-10-09T10:30:01.298Z,112.00
2018-10-09T10:32:29.678Z,104.00
2018-10-09T10:34:57.816Z,101.67
2018-10-09T10:37:25.918Z,106.70
2018-10-09T10:39:54.230Z,93.53
2018-10-09T10:42:22.344Z,94.20
2018-10-09T10:44:50.550Z,86.23
2018-10-09T10:47:18.658Z,96.27
2018-10-09T10:49:46.750Z,81.50
2018-10-09T10:52:14.843Z,86.67
2018-10-09T10:54:42.938Z,86.20
2018-10-09T10:57:11.006Z,90.47
2018-10-09T10:59:39.151Z,86.73
2018-10-09T11:02:07.666Z,76.00
2018-10-09T11:04:35.972Z,76.20
2018-10-09T11:07:04.154Z,75.27
2018-10-09T11:09:32.364Z,65.93
2018-10-09T11:12:00.666Z,67.10
2018-10-09T11:14:28.942Z,66.97
2018-10-09T11:16:56.979Z,58.50
2018-10-09T11:19:25.157Z,62.87
2018-10-09T11:21:53.567Z,58.87
2018-10-09T11:24:21.779Z,62.53
2018-10-09T11:26:49.886Z,60.80
2018-10-09T11:29:17.990Z,58.43
2018-10-09T11:31:46.074Z,54.30
2018-10-09T11:34:14.158Z,54.87
2018-10-09T11:36:42.287Z,58.03
2018-10-09T11:39:10.492Z,50.37
2018-10-09T11:41:38.602Z,57.17
2018-10-09T11:44:06.769Z,52.20
2018-10-09T11:46:35.958Z,44.53
2018-10-09T11:49:04.126Z,48.50
2018-10-09T11:51:32.264Z,41.27
2018-10-09T11:54:00.406Z,43.07
2018-10-09T11:56:28.473Z,41.00
2018-10-09T11:58:56.641Z,41.93
2018-10-09T12:01:24.692Z,42.90
2018-10-09T12:03:52.855Z,41.50
2018-10-09T12:06:20.927Z,38.27
2018-10-09T12:08:49.038Z,39.53
2018-10-09T12:11:17.176Z,39.03
2018-10-09T12:13:45.255Z,33.67
2018-10-09T12:16:13.385Z,36.47
2018-10-09T12:18:41.530Z,34.60
2018-10-09T12:21:09.691Z,34.03
2018-10-09T12:23:37.806Z,32.20
2018-10-09T12:26:05.888Z,33.27
2018-10-09T12:28:34.012Z,31.57
2018-10-09T12:31:02.103Z,36.00
2018-10-09T12:33:30.230Z,30.10
2018-10-09T12:35:58.380Z,31.20
2018-10-09T12:38:26.693Z,28.20
2018-10-09T12:40:54.798Z,28.07
2018-10-09T12:43:22.894Z,29.03
2018-10-09T12:45:50.982Z,30.57
2018-10-09T12:48:19.063Z,28.33
2018-10-09T12:50:47.150Z,28.67
2018-10-09T12:53:15.230Z,24.77
2018-10-09T12:55:43.310Z,25.57
2018-10-09T12:58:11.407Z,24.00
2018-10-09T13:00:39.559Z,22.40
2018-10-09T13:03:07.821Z,22.83
2018-10-09T13:05:35.939Z,23.27
2018-10-09T13:08:03.986Z,26.33
2018-10-09T13:10:32.110Z,22.53
2018-10-09T13:13:00.218Z,23.33
2018-10-09T13:15:28.333Z,21.17
2018-10-09T13:17:56.468Z,18.70
2018-10-09T13:20:24.541Z,20.27
2018-10-09T13:22:52.756Z,21.23
2018-10-09T13:25:20.775Z,23.87
2018-10-09T13:27:48.889Z,18.67
2018-10-09T13:30:16.994Z,19.57
2018-10-09T13:32:45.078Z,19.63
2018-10-09T13:35:13.169Z,17.73
2018-10-09T13:37:41.287Z,17.87
2018-10-09T13:40:09.411Z,18.43
2018-10-09T13:42:37.506Z,17.80
2018-10-09T13:45:05.754Z,16.27
2018-10-09T13:47:33.912Z,14.17
2018-10-09T13:50:01.904Z,18.50
2018-10-09T13:52:29.979Z,16.07
2018-10-09T13:54:58.114Z,15.80
2018-10-09T13:57:26.242Z,17.70
2018-10-09T13:59:54.269Z,14.23
2018-10-09T14:02:22.806Z,14.37
2018-10-09T14:04:50.934Z,16.13
2018-10-09T14:07:19.091Z,16.23
2018-10-09T14:09:47.214Z,14.03
2018-10-09T14:12:15.335Z,13.60
2018-10-09T14:14:43.428Z,12.80
2018-10-09T14:17:11.533Z,11.20
2018-10-09T14:19:39.654Z,14.10
2018-10-09T14:22:07.759Z,12.37
2018-10-09T14:24:35.886Z,13.73
2018-10-09T14:27:03.967Z,12.13
2018-10-09T14:29:32.289Z,11.77
2018-10-09T14:32:00.390Z,13.03
2018-10-09T14:34:28.491Z,11.70
2018-10-09T14:36:56.583Z,14.43
2018-10-09T14:39:24.789Z,13.90
2018-10-09T14:41:52.926Z,12.13
2018-10-09T14:44:21.039Z,9.33
2018-10-09T14:46:49.167Z,10.80
2018-10-09T14:49:17.357Z,10.07
2018-10-09T14:51:45.527Z,12.50
2018-10-09T14:54:13.626Z,10.37
2018-10-09T14:56:41.772Z,10.30
2018-10-09T14:59:09.891Z,10.80
2018-10-09T15:01:38.023Z,11.47
2018-10-09T15:04:06.343Z,13.40
2018-10-09T15:06:34.422Z,9.40
2018-10-09T15:09:02.481Z,8.43
2018-10-09T15:11:30.570Z,7.03
2018-10-09T15:13:58.670Z,10.67
2018-10-09T15:16:26.762Z,10.53
2018-10-09T15:18:54.860Z,9.93
2018-10-09T15:21:22.963Z,11.00
2018-10-09T15:23:51.042Z,8.07
2018-10-09T15:26:19.103Z,9.77
2018-10-09T15:28:47.239Z,9.43
2018-10-09T15:31:15.343Z,9.07
2018-10-09T15:33:43.462Z,6.17
2018-10-09T15:36:11.571Z,7.20
2018-10-09T15:38:39.655Z,7.60
2018-10-09T15:41:07.869Z,8.83
2018-10-09T15:43:35.964Z,6.87
2018-10-09T15:46:04.122Z,8.00
2018-10-09T15:48:32.239Z,10.23
2018-10-09T15:51:00.344Z,7.73
2018-10-09T15:53:28.503Z,7.67
2018-10-09T15:55:56.635Z,7.43
2018-10-09T15:58:24.766Z,6.67
2018-10-09T16:00:52.800Z,9.20
2018-10-09T16:03:20.965Z,6.57
2018-10-09T16:05:49.083Z,7.57
2018-10-09T16:08:17.219Z,9.13
2018-10-09T16:10:45.686Z,9.83
2018-10-09T16:13:13.836Z,8.60
2018-10-09T16:15:41.975Z,6.17
2018-10-09T16:18:10.085Z,7.53
2018-10-09T16:20:38.264Z,9.73
2018-10-09T16:23:06.711Z,7.93
2018-10-09T16:25:34.806Z,6.87
2018-10-09T16:28:02.979Z,6.27
2018-10-09T16:30:31.104Z,11.90
2018-10-09T16:32:59.239Z,5.83
2018-10-09T16:35:27.320Z,5.77
2018-10-09T16:37:56.082Z,6.77
2018-10-09T16:40:24.225Z,7.50
2018-10-09T16:42:52.398Z,7.03
2018-10-09T16:45:20.522Z,5.47
2018-10-09T16:47:48.691Z,7.20
2018-10-09T16:50:16.800Z,6.10
2018-10-09T16:52:44.919Z,5.97
2018-10-09T16:55:13.093Z,5.60
2018-10-09T16:57:41.214Z,5.27
2018-10-09T17:00:09.334Z,6.43
2018-10-09T17:02:37.654Z,4.43
2018-10-09T17:05:05.886Z,7.23
2018-10-09T17:07:33.959Z,8.43
2018-10-09T17:10:02.077Z,5.70
2018-10-09T17:12:30.278Z,5.07
2018-10-09T17:14:58.391Z,5.80
2018-10-09T17:17:26.509Z,5.00
2018-10-09T17:19:54.689Z,6.23
2018-10-09T17:22:22.892Z,4.23
2018-10-09T17:24:50.950Z,5.43
2018-10-09T17:27:19.065Z,5.20
2018-10-09T17:29:47.188Z,6.10
2018-10-09T17:32:15.246Z,6.93
2018-10-09T17:34:43.354Z,5.27
2018-10-09T17:37:11.426Z,7.37
2018-10-09T17:39:40.047Z,4.87
2018-10-09T17:42:08.157Z,8.03
2018-10-09T17:44:36.313Z,6.93
2018-10-09T17:47:08.379Z,5.90
2018-10-09T17:49:37.786Z,3.27
2018-10-09T17:52:06.027Z,6.83
2018-10-09T17:54:34.137Z,4.70
2018-10-09T17:57:02.255Z,5.93
2018-10-09T17:59:30.607Z,4.60
2018-10-09T18:01:59.358Z,8.53
2018-10-09T18:04:27.526Z,6.10
2018-10-09T18:06:56.103Z,4.43
2018-10-09T18:09:24.215Z,4.60
2018-10-09T18:11:52.324Z,5.23
2018-10-09T18:14:20.443Z,6.40
2018-10-09T18:16:48.665Z,4.00
2018-10-09T18:19:16.870Z,6.70
2018-10-09T18:21:45.250Z,6.87
2018-10-09T18:24:13.338Z,5.83
2018-10-09T18:26:41.439Z,4.70
2018-10-09T18:29:09.578Z,4.30
2018-10-09T18:31:37.746Z,4.87
2018-10-09T18:34:05.831Z,5.20
2018-10-09T18:36:34.315Z,4.13
2018-10-09T18:39:02.395Z,4.83
2018-10-09T18:41:30.793Z,5.33
2018-10-09T18:43:58.599Z,5.57
2018-10-09T18:46:26.967Z,4.33
2018-10-09T18:48:55.040Z,5.40
2018-10-09T18:51:23.170Z,4.07
2018-10-09T18:53:52.280Z,5.40
2018-10-09T18:56:20.379Z,6.50
2018-10-09T18:58:49.366Z,3.80
2018-10-09T19:01:17.371Z,5.10
2018-10-09T19:03:45.665Z,4.97
2018-10-09T19:06:13.890Z,3.93
2018-10-09T19:08:41.967Z,5.87
2018-10-09T19:11:10.107Z,7.63
2018-10-09T19:13:38.191Z,4.13
2018-10-09T19:16:06.519Z,4.37
2018-10-09T19:18:34.676Z,3.10
2018-10-09T19:21:02.826Z,6.73
2018-10-09T19:23:31.020Z,4.90
2018-10-09T19:25:59.175Z,4.63
2018-10-09T19:28:27.331Z,4.63
2018-10-09T19:30:55.441Z,3.43
2018-10-09T19:33:23.515Z,3.37
2018-10-09T19:35:51.582Z,4.50
2018-10-09T19:38:19.938Z,3.23
2018-10-09T19:40:48.090Z,4.67
2018-10-09T19:43:16.312Z,5.40
2018-10-09T19:45:44.422Z,5.80
2018-10-09T19:48:12.631Z,3.70
2018-10-09T19:50:40.834Z,2.80
2018-10-09T19:53:08.879Z,7.20
2018-10-09T19:55:37.076Z,5.87
2018-10-09T19:58:05.369Z,3.87
2018-10-09T20:00:33.540Z,6.07
2018-10-09T20:05:42.860Z,5.77
2018-10-09T20:08:11.025Z,9.83
2018-10-09T20:10:39.166Z,7.63
2018-10-09T20:13:07.372Z,8.13
2018-10-09T20:15:35.506Z,7.63
2018-10-09T20:18:03.654Z,7.80
2018-10-09T20:20:32.578Z,7.47
2018-10-09T20:23:00.673Z,10.97
2018-10-09T20:25:28.766Z,10.93
2018-10-09T20:27:56.916Z,10.13
2018-10-09T20:30:25.049Z,11.10
2018-10-09T20:32:53.172Z,12.13
2018-10-09T20:35:21.321Z,9.23
2018-10-09T20:37:49.387Z,9.67
2018-10-09T20:40:17.555Z,7.27
2018-10-09T20:42:46.242Z,10.00
2018-10-09T20:45:14.362Z,9.80
2018-10-09T20:47:44.190Z,8.07
2018-10-09T20:50:13.263Z,11.17
2018-10-09T20:52:42.491Z,8.63
2018-10-09T20:55:11.354Z,9.27
2018-10-09T20:57:39.470Z,9.60
2018-10-09T21:00:08.383Z,11.77
2018-10-09T21:02:38.655Z,14.77
2018-10-09T21:05:07.722Z,7.63
2018-10-09T21:07:40.608Z,6.20
2018-10-09T21:10:09.376Z,5.00
2018-10-09T21:12:49.702Z,10.93
2018-10-09T21:15:18.323Z,7.97
2018-10-09T21:17:47.863Z,8.80
2018-10-09T21:20:15.936Z,6.83
2018-10-09T21:22:44.110Z,8.43
2018-10-09T21:25:12.382Z,8.37
2018-10-09T21:27:40.546Z,4.90
2018-10-09T21:30:09.015Z,7.67
2018-10-09T21:32:37.444Z,6.67
2018-10-09T21:35:08.565Z,6.30
2018-10-09T21:37:37.952Z,5.80
2018-10-09T21:40:06.431Z,4.77
2018-10-09T21:42:34.619Z,5.27
2018-10-09T21:45:02.892Z,6.13
2018-10-09T21:47:31.218Z,9.70
2018-10-09T21:49:59.434Z,4.83
2018-10-09T21:52:27.548Z,9.10
2018-10-09T21:54:55.674Z,5.40
2018-10-09T21:57:24.409Z,8.30
2018-10-09T21:59:52.582Z,4.87
2018-10-09T22:02:20.716Z,7.87
2018-10-09T22:04:48.855Z,4.67
2018-10-09T22:07:18.187Z,5.87
2018-10-09T22:09:46.630Z,6.67
2018-10-09T22:12:14.982Z,6.57
2018-10-09T22:14:43.166Z,6.70
2018-10-09T22:17:11.471Z,6.03
2018-10-09T22:19:39.778Z,6.40
2018-10-09T22:22:08.019Z,4.10
2018-10-09T22:24:36.431Z,7.40
2018-10-09T22:27:04.687Z,5.47
2018-10-09T22:29:33.150Z,4.17
2018-10-09T22:35:21.267Z,5.93
2018-10-09T22:37:49.444Z,5.70
2018-10-09T22:40:17.851Z,5.03
2018-10-09T22:42:46.130Z,7.33
2018-10-09T22:45:14.290Z,4.47
2018-10-09T22:47:42.519Z,8.57
2018-10-09T22:50:10.852Z,4.57
2018-10-09T22:52:39.095Z,5.00
2018-10-09T22:55:07.459Z,6.87
2018-10-09T22:57:36.444Z,5.17
2018-10-09T23:00:04.648Z,4.63
2018-10-09T23:02:32.808Z,4.57
2018-10-09T23:05:01.001Z,3.57
2018-10-09T23:07:29.260Z,5.53
2018-10-09T23:09:57.530Z,4.07
2018-10-09T23:12:25.789Z,4.83
2018-10-09T23:14:54.023Z,4.10
2018-10-09T23:17:22.290Z,4.43
2018-10-09T23:19:50.474Z,4.03
2018-10-09T23:22:18.668Z,4.00
2018-10-09T23:24:46.950Z,4.00
2018-10-09T23:27:15.241Z,5.83
2018-10-09T23:29:43.599Z,3.20
2018-10-09T23:32:11.842Z,5.00
2018-10-09T23:34:40.109Z,4.63
2018-10-09T23:37:08.658Z,4.57
2018-10-09T23:39:37.030Z,4.37
2018-10-09T23:42:05.979Z,5.20
2018-10-09T23:44:34.313Z,4.30
2018-10-09T23:47:02.594Z,3.03
2018-10-09T23:49:30.872Z,4.53
2018-10-09T23:51:58.994Z,4.50
2018-10-09T23:54:27.330Z,3.23
2018-10-09T23:56:55.588Z,4.10
2018-10-09T23:59:23.909Z,3.20
